Time;durP1;ratioP1;P1;durP2;ratioP2;P2;SDS_P1;SDS_P2;PMS_P1;PMS_P2;Temp;Humidity;BMP_temperature;BMP_pressure;BME280_temperature;BME280_humidity;BME280_pressure;Samples;Min_cycle;Max_cycle;Signal;HPM_P1;HPM_P2
2022/05/11 00:00:35;;;;;;;12.45;7.25;;;13.60;99.90;;;;;;5082336;28;20057;-80
2022/05/11 00:03:01;;;;;;;13.82;7.57;;;13.60;99.90;;;;;;5031944;28;20485;-81
2022/05/11 00:05:27;;;;;;;13.55;7.53;;;13.60;99.90;;;;;;5015474;28;20049;-82
2022/05/11 00:07:53;;;;;;;10.50;6.63;;;13.70;99.90;;;;;;5049320;28;20353;-81
2022/05/11 00:10:19;;;;;;;10.75;7.07;;;13.60;99.90;;;;;;5050235;28;20049;-80
2022/05/11 00:12:46;;;;;;;14.25;7.90;;;13.60;99.90;;;;;;5033495;28;20071;-82
2022/05/11 00:15:16;;;;;;;15.85;8.88;;;13.60;99.90;;;;;;5032960;28;20131;-81
2022/05/11 00:17:42;;;;;;;12.20;8.18;;;13.70;99.90;;;;;;5025875;28;20053;-80
2022/05/11 00:20:09;;;;;;;11.68;8.43;;;13.60;99.90;;;;;;5034126;28;20060;-81
2022/05/11 00:22:36;;;;;;;15.20;8.85;;;13.60;99.90;;;;;;5050404;28;20098;-82
2022/05/11 00:25:03;;;;;;;11.95;7.97;;;13.60;99.90;;;;;;5044105;28;20041;-81
2022/05/11 00:27:28;;;;;;;13.35;8.05;;;13.60;99.90;;;;;;5049337;28;20131;-81
2022/05/11 00:29:54;;;;;;;12.55;8.10;;;13.60;99.90;;;;;;5049562;28;20132;-82
2022/05/11 00:32:23;;;;;;;12.82;8.07;;;13.60;99.90;;;;;;5033386;28;20140;-81
2022/05/11 00:34:48;;;;;;;14.70;7.65;;;13.60;99.90;;;;;;5066895;28;20043;-80
2022/05/11 00:37:14;;;;;;;14.15;7.35;;;13.50;99.90;;;;;;5067242;28;20124;-81
2022/05/11 00:39:40;;;;;;;13.35;7.47;;;13.50;99.90;;;;;;5001330;28;20051;-80
2022/05/11 00:42:06;;;;;;;15.32;8.07;;;13.50;99.90;;;;;;5067504;28;20098;-82
2022/05/11 00:44:32;;;;;;;15.07;8.45;;;13.50;99.90;;;;;;5048419;28;20045;-81
2022/05/11 00:47:07;;;;;;;15.60;7.78;;;13.50;99.90;;;;;;5033875;28;20558;-81
2022/05/11 00:49:42;;;;;;;14.30;7.05;;;13.50;99.90;;;;;;5049806;28;20056;-81
2022/05/11 00:52:25;;;;;;;15.15;7.20;;;13.50;99.90;;;;;;5023571;28;20040;-78
2022/05/11 00:54:59;;;;;;;13.02;7.82;;;13.50;99.90;;;;;;5031969;28;20049;-79
2022/05/11 00:57:35;;;;;;;12.60;7.82;;;13.50;99.90;;;;;;5048357;28;20041;-82
2022/05/11 01:00:02;;;;;;;14.93;8.25;;;13.50;99.90;;;;;;5034290;28;20049;-81
2022/05/11 01:02:28;;;;;;;13.88;8.10;;;13.50;99.90;;;;;;5048606;28;20079;-82
2022/05/11 01:04:59;;;;;;;16.60;8.38;;;13.50;99.90;;;;;;5082647;28;20053;-82
2022/05/11 01:07:27;;;;;;;12.30;7.22;;;13.50;99.90;;;;;;5080946;28;20068;-81
2022/05/11 01:09:53;;;;;;;15.52;8.45;;;13.40;99.90;;;;;;5033571;28;20088;-81
2022/05/11 01:12:20;;;;;;;13.45;8.75;;;13.40;99.90;;;;;;5027960;28;20076;-81
2022/05/11 01:14:52;;;;;;;12.32;7.50;;;13.40;99.90;;;;;;5021347;28;20520;-81
2022/05/11 01:17:18;;;;;;;12.48;7.60;;;13.40;99.90;;;;;;5041185;28;20051;-81
2022/05/11 01:19:46;;;;;;;13.73;6.90;;;13.40;99.90;;;;;;5031118;28;20056;-81
2022/05/11 01:22:20;;;;;;;14.25;7.78;;;13.30;99.90;;;;;;5014397;28;20112;-82
2022/05/11 01:24:48;;;;;;;16.63;7.93;;;13.30;99.90;;;;;;5030619;28;20049;-81
2022/05/11 01:27:26;;;;;;;10.90;7.45;;;13.30;99.90;;;;;;5048813;28;20040;-78
2022/05/11 01:29:53;;;;;;;15.90;7.65;;;13.30;99.90;;;;;;5030958;28;20125;-81
2022/05/11 01:32:20;;;;;;;16.20;8.00;;;13.30;99.90;;;;;;5022502;28;20119;-81
2022/05/11 01:34:50;;;;;;;14.18;7.93;;;13.20;99.90;;;;;;5029673;28;20049;-81
2022/05/11 01:37:17;;;;;;;13.43;7.93;;;13.20;99.90;;;;;;5047694;28;20114;-79
2022/05/11 01:39:44;;;;;;;12.52;7.07;;;13.20;99.90;;;;;;5049614;28;20398;-82
2022/05/11 01:42:11;;;;;;;14.30;6.50;;;13.20;99.90;;;;;;5063164;28;20226;-81
2022/05/11 01:44:37;;;;;;;12.10;6.03;;;13.20;99.90;;;;;;5047546;28;20088;-79
2022/05/11 01:47:03;;;;;;;12.27;6.85;;;13.20;99.90;;;;;;5032117;28;20080;-80
2022/05/11 01:49:30;;;;;;;13.05;7.10;;;13.10;99.90;;;;;;5032037;28;20071;-81
2022/05/11 01:51:57;;;;;;;12.52;6.65;;;13.10;99.90;;;;;;5064415;28;20057;-80
2022/05/11 01:54:24;;;;;;;15.02;7.47;;;13.00;99.90;;;;;;5062485;28;20045;-80
2022/05/11 01:56:50;;;;;;;14.77;7.30;;;13.00;99.90;;;;;;5047694;28;20084;-79
2022/05/11 01:59:16;;;;;;;12.05;6.43;;;13.00;99.90;;;;;;5030968;28;20131;-80
2022/05/11 02:01:42;;;;;;;13.13;6.72;;;13.00;99.90;;;;;;5040614;28;20135;-83
2022/05/11 02:07:49;;;;;;;12.25;6.95;;;13.00;99.90;;;;;;5049299;28;20041;-80
2022/05/11 02:09:43;;;;;;;14.38;6.80;;;13.00;99.90;;;;;;5081982;28;20049;-80
2022/05/11 02:12:10;;;;;;;11.38;5.10;;;13.00;99.90;;;;;;5032507;28;20045;-78
2022/05/11 02:14:37;;;;;;;11.57;5.40;;;13.00;99.90;;;;;;5049681;28;20053;-79
2022/05/11 02:17:03;;;;;;;13.38;5.50;;;13.00;99.90;;;;;;5060631;28;20064;-81
2022/05/11 02:19:30;;;;;;;10.82;5.20;;;13.00;99.90;;;;;;5032743;28;20044;-78
2022/05/11 02:21:55;;;;;;;11.85;4.95;;;13.00;99.90;;;;;;5009295;28;20064;-81
2022/05/11 02:24:22;;;;;;;14.70;5.40;;;13.00;99.90;;;;;;5065504;28;20056;-79
2022/05/11 02:26:48;;;;;;;15.45;5.10;;;13.10;99.90;;;;;;5047712;28;20045;-80
2022/05/11 02:29:14;;;;;;;10.45;5.28;;;13.10;99.90;;;;;;5049090;28;20060;-81
2022/05/11 02:31:40;;;;;;;14.40;5.15;;;13.10;99.90;;;;;;5039865;28;20053;-80
2022/05/11 02:34:06;;;;;;;12.15;4.80;;;13.10;99.90;;;;;;5015965;28;20045;-80
2022/05/11 02:36:35;;;;;;;12.00;5.05;;;13.20;99.90;;;;;;5000086;28;20110;-81
2022/05/11 02:39:01;;;;;;;13.98;5.40;;;13.20;99.90;;;;;;5032169;28;20477;-80
2022/05/11 02:41:27;;;;;;;13.52;4.72;;;13.20;99.90;;;;;;5031904;28;20045;-80
2022/05/11 02:43:52;;;;;;;12.63;4.43;;;13.20;99.90;;;;;;5045965;28;20141;-78
2022/05/11 02:46:18;;;;;;;15.43;4.30;;;13.30;99.90;;;;;;5049125;28;20068;-80
2022/05/11 02:48:44;;;;;;;10.50;4.50;;;13.30;99.90;;;;;;5048907;28;20147;-81
2022/05/11 02:51:10;;;;;;;9.10;3.97;;;14.10;99.90;;;;;;5030088;28;20057;-81
2022/05/11 02:53:36;;;;;;;12.48;4.15;;;13.30;99.90;;;;;;5031047;28;20048;-81
2022/05/11 02:56:02;;;;;;;14.65;4.65;;;13.30;99.90;;;;;;5030274;28;20044;-80
2022/05/11 02:58:32;;;;;;;9.52;3.83;;;13.30;99.90;;;;;;5007978;28;20102;-80
2022/05/11 03:01:01;;;;;;;11.02;4.78;;;13.30;99.90;;;;;;5041355;28;20064;-81
2022/05/11 03:03:33;;;;;;;12.88;5.10;;;13.40;99.90;;;;;;5066595;28;20142;-78
2022/05/11 03:06:01;;;;;;;13.13;4.75;;;13.30;99.90;;;;;;5062910;28;20052;-82
2022/05/11 03:08:29;;;;;;;12.95;4.97;;;13.30;99.90;;;;;;5035160;28;20045;-79
2022/05/11 03:10:55;;;;;;;9.02;4.50;;;13.30;99.90;;;;;;5048375;28;20060;-82
2022/05/11 03:13:20;;;;;;;12.30;4.50;;;13.30;99.90;;;;;;5018504;28;20056;-80
2022/05/11 03:15:47;;;;;;;12.13;5.10;;;13.30;99.90;;;;;;5035086;28;20044;-81
2022/05/11 03:18:13;;;;;;;12.43;4.88;;;13.30;99.90;;;;;;5034986;28;20052;-79
2022/05/11 03:20:39;;;;;;;10.13;5.25;;;13.30;99.90;;;;;;5043268;28;20047;-81
2022/05/11 03:23:05;;;;;;;13.07;5.22;;;13.30;99.90;;;;;;5043243;28;20076;-80
2022/05/11 03:25:31;;;;;;;11.48;4.70;;;13.30;99.90;;;;;;5050279;28;20079;-80
2022/05/11 03:27:58;;;;;;;10.68;5.30;;;13.30;99.90;;;;;;5084182;28;20136;-78
2022/05/11 03:30:24;;;;;;;11.57;4.72;;;13.30;99.90;;;;;;5050990;28;20053;-80
2022/05/11 03:35:35;;;;;;;9.00;4.70;;;13.20;99.90;;;;;;5049191;28;20059;-81
2022/05/11 03:38:01;;;;;;;12.27;4.78;;;13.20;99.90;;;;;;5032283;28;20588;-79
2022/05/11 03:40:27;;;;;;;10.65;5.00;;;13.30;99.90;;;;;;5035094;28;20045;-81
2022/05/11 03:42:53;;;;;;;12.40;4.60;;;13.20;99.90;;;;;;5051930;28;20049;-82
2022/05/11 03:45:21;;;;;;;13.40;5.05;;;13.30;99.90;;;;;;5050610;28;20045;-81
2022/05/11 03:47:47;;;;;;;13.15;4.85;;;13.30;99.90;;;;;;5024624;28;20094;-81
2022/05/11 03:50:16;;;;;;;13.02;4.15;;;13.30;99.90;;;;;;5032531;28;20081;-80
2022/05/11 03:52:41;;;;;;;11.27;5.18;;;13.30;99.90;;;;;;5052137;28;20041;-79
2022/05/11 03:55:10;;;;;;;13.55;4.75;;;13.30;99.90;;;;;;5048739;28;20395;-81
2022/05/11 03:57:37;;;;;;;10.73;4.80;;;13.30;99.90;;;;;;5015239;28;20077;-80
2022/05/11 04:00:08;;;;;;;15.05;5.22;;;13.40;99.90;;;;;;5007402;28;20056;-81
2022/05/11 04:02:34;;;;;;;13.75;4.90;;;13.40;99.90;;;;;;5053734;28;20121;-80
2022/05/11 04:05:00;;;;;;;11.77;5.70;;;13.40;99.90;;;;;;5034513;28;20051;-80
2022/05/11 04:07:26;;;;;;;16.30;5.15;;;13.40;99.90;;;;;;5045030;28;20045;-81
2022/05/11 04:09:51;;;;;;;14.30;5.68;;;13.40;99.90;;;;;;5067691;28;20084;-83
2022/05/11 04:12:17;;;;;;;12.65;5.45;;;13.40;99.90;;;;;;5022971;28;20057;-80
2022/05/11 04:14:43;;;;;;;12.93;5.22;;;13.50;99.90;;;;;;5051613;28;20140;-81
2022/05/11 04:17:09;;;;;;;15.40;5.85;;;13.50;99.90;;;;;;5012082;28;20053;-80
2022/05/11 04:19:35;;;;;;;18.40;6.00;;;13.50;99.90;;;;;;5051229;28;20048;-80
2022/05/11 04:22:01;;;;;;;14.70;5.78;;;13.60;99.90;;;;;;5031925;28;20052;-82
2022/05/11 04:24:27;;;;;;;13.23;5.30;;;13.60;99.90;;;;;;5007156;28;20049;-81
2022/05/11 04:26:53;;;;;;;12.60;4.63;;;13.60;99.90;;;;;;5034268;28;20044;-83
2022/05/11 04:29:19;;;;;;;13.85;5.32;;;13.60;99.90;;;;;;5066429;28;20049;-81
2022/05/11 04:31:44;;;;;;;14.02;4.70;;;13.60;99.90;;;;;;5049736;28;20053;-81
2022/05/11 04:34:11;;;;;;;10.27;4.32;;;13.60;99.90;;;;;;5051487;28;20048;-82
2022/05/11 04:36:39;;;;;;;15.95;4.30;;;13.60;99.90;;;;;;5052399;28;20142;-81
2022/05/11 04:39:06;;;;;;;18.38;5.07;;;13.70;99.90;;;;;;5049745;28;20502;-80
2022/05/11 04:41:32;;;;;;;11.35;4.35;;;13.70;99.90;;;;;;5084585;28;20095;-80
2022/05/11 04:43:58;;;;;;;13.50;4.13;;;13.70;99.90;;;;;;5050408;28;20049;-82
2022/05/11 04:46:24;;;;;;;14.25;4.40;;;13.70;99.90;;;;;;5033784;28;20052;-81
2022/05/11 04:48:49;;;;;;;10.52;3.60;;;13.80;99.90;;;;;;5040050;28;20098;-76
2022/05/11 04:51:15;;;;;;;9.15;3.65;;;13.70;99.90;;;;;;5056860;28;20099;-81
2022/05/11 04:53:41;;;;;;;11.45;4.35;;;13.80;99.90;;;;;;5044455;28;20044;-80
2022/05/11 04:56:07;;;;;;;15.05;3.47;;;13.80;99.90;;;;;;5052912;28;20049;-81
2022/05/11 04:58:33;;;;;;;8.80;3.30;;;13.80;99.90;;;;;;5034971;28;20059;-80
2022/05/11 05:00:58;;;;;;;10.68;3.33;;;13.80;99.90;;;;;;5040892;28;20080;-78
2022/05/11 05:03:24;;;;;;;10.43;3.65;;;13.90;99.90;;;;;;5009194;28;20056;-82
2022/05/11 05:05:50;;;;;;;9.63;3.72;;;13.80;99.90;;;;;;5066440;28;20098;-78
2022/05/11 05:08:16;;;;;;;13.80;3.28;;;13.80;99.90;;;;;;5031111;28;20037;-81
2022/05/11 05:10:43;;;;;;;8.40;3.05;;;13.80;99.90;;;;;;5047885;28;20061;-80
2022/05/11 05:13:11;;;;;;;11.38;3.00;;;13.90;99.90;;;;;;5049033;28;20056;-80
2022/05/11 05:15:39;;;;;;;11.50;3.30;;;13.90;99.90;;;;;;5049997;28;20462;-76
2022/05/11 05:18:06;;;;;;;15.25;3.58;;;13.90;99.90;;;;;;5047725;28;20055;-78
2022/05/11 05:20:32;;;;;;;10.02;2.95;;;13.90;99.90;;;;;;5041364;28;20071;-80
2022/05/11 05:22:58;;;;;;;14.38;3.05;;;13.90;99.90;;;;;;5080758;28;20076;-83
2022/05/11 05:25:25;;;;;;;10.73;3.45;;;13.90;99.90;;;;;;5024384;28;20084;-79
2022/05/11 05:27:53;;;;;;;13.65;3.30;;;13.90;99.90;;;;;;5015620;28;20037;-80
2022/05/11 05:33:04;;;;;;;11.75;2.88;;;14.00;99.90;;;;;;5080822;28;20053;-80
2022/05/11 05:35:30;;;;;;;13.25;3.10;;;14.00;99.90;;;;;;5046975;28;20544;-81
2022/05/11 05:37:56;;;;;;;10.77;3.17;;;14.00;99.90;;;;;;5037738;28;20049;-80
2022/05/11 05:40:22;;;;;;;9.80;2.90;;;14.00;99.90;;;;;;5049160;28;20115;-80
2022/05/11 05:42:48;;;;;;;13.23;2.95;;;14.00;99.90;;;;;;5049932;28;20077;-78
2022/05/11 05:45:14;;;;;;;11.90;3.05;;;14.10;99.90;;;;;;5048537;28;20111;-81
2022/05/11 05:47:40;;;;;;;12.32;3.00;;;14.10;99.90;;;;;;5032672;28;20110;-77
2022/05/11 05:50:08;;;;;;;9.52;2.50;;;14.10;99.90;;;;;;5025206;28;20044;-81
2022/05/11 05:52:34;;;;;;;8.75;2.70;;;14.10;99.90;;;;;;5024638;28;20053;-81
2022/05/11 05:55:00;;;;;;;14.25;3.15;;;14.10;99.90;;;;;;5047892;28;20132;-81
2022/05/11 05:57:27;;;;;;;12.77;3.28;;;14.10;99.90;;;;;;5006897;28;20470;-81
2022/05/11 05:59:53;;;;;;;12.18;2.80;;;14.20;99.90;;;;;;5037550;28;20128;-80
2022/05/11 06:02:19;;;;;;;12.93;3.42;;;14.20;99.90;;;;;;5082849;28;20127;-78
2022/05/11 06:04:50;;;;;;;10.70;2.97;;;14.20;99.90;;;;;;5064896;28;20049;-79
2022/05/11 06:07:18;;;;;;;12.48;3.08;;;14.20;99.90;;;;;;5024458;28;20037;-80
2022/05/11 06:09:45;;;;;;;13.88;3.38;;;14.20;99.90;;;;;;5014123;28;20048;-80
2022/05/11 06:12:13;;;;;;;12.52;2.72;;;14.20;99.90;;;;;;5028496;28;20406;-76
2022/05/11 06:14:40;;;;;;;14.13;3.10;;;14.20;99.90;;;;;;5025515;28;20103;-81
2022/05/11 06:17:13;;;;;;;11.63;3.25;;;14.20;99.90;;;;;;5081500;28;20128;-82
2022/05/11 06:19:39;;;;;;;12.95;3.63;;;14.30;99.90;;;;;;5048221;28;20104;-80
2022/05/11 06:22:05;;;;;;;11.00;3.03;;;14.30;99.90;;;;;;5030989;28;20132;-80
2022/05/11 06:24:31;;;;;;;13.30;3.30;;;14.30;99.90;;;;;;5023526;28;20114;-80
2022/05/11 06:26:57;;;;;;;13.50;3.08;;;14.30;99.90;;;;;;5048208;28;20549;-80
2022/05/11 06:29:23;;;;;;;15.00;3.20;;;14.30;99.90;;;;;;5040789;28;20400;-76
2022/05/11 06:31:48;;;;;;;15.32;3.80;;;14.30;99.90;;;;;;5007552;28;20051;-79
2022/05/11 06:34:15;;;;;;;13.18;3.53;;;14.40;99.90;;;;;;5023988;28;20049;-77
2022/05/11 06:36:42;;;;;;;11.70;3.28;;;14.40;99.90;;;;;;5068726;28;20405;-77
2022/05/11 06:39:08;;;;;;;10.93;3.22;;;14.40;99.90;;;;;;5085021;28;20124;-80
2022/05/11 06:41:34;;;;;;;12.27;3.00;;;14.40;99.90;;;;;;5033976;28;20151;-80
2022/05/11 06:44:00;;;;;;;14.15;3.55;;;14.40;99.90;;;;;;5063536;28;20057;-82
2022/05/11 06:46:26;;;;;;;14.50;3.85;;;14.50;99.90;;;;;;5047857;28;20122;-79
2022/05/11 06:48:52;;;;;;;12.82;3.30;;;14.50;99.90;;;;;;5068982;28;20087;-82
2022/05/11 06:51:20;;;;;;;12.40;3.10;;;14.50;99.90;;;;;;5019066;28;20098;-81
2022/05/11 06:59:20;;;;;;;11.75;2.72;;;14.50;99.90;;;;;;5034723;28;20045;-81
2022/05/11 07:02:05;;;;;;;10.27;2.90;;;14.50;99.90;;;;;;5051345;28;20041;-80
2022/05/11 07:04:33;;;;;;;11.82;2.90;;;14.60;99.90;;;;;;5027277;28;20083;-81
2022/05/11 07:07:00;;;;;;;11.20;3.10;;;14.60;99.90;;;;;;5052232;28;20453;-80
2022/05/11 07:09:31;;;;;;;11.18;2.90;;;14.70;99.90;;;;;;5047701;28;20145;-81
2022/05/11 07:14:42;;;;;;;16.15;3.33;;;14.80;99.90;;;;;;5051161;28;20048;-77
2022/05/11 07:17:08;;;;;;;12.68;3.67;;;14.90;99.90;;;;;;5050695;28;20049;-81
2022/05/11 07:19:34;;;;;;;13.98;3.78;;;15.00;99.90;;;;;;5012497;28;20055;-79
2022/05/11 07:22:00;;;;;;;14.88;3.30;;;15.00;99.90;;;;;;5008842;28;20528;-81
2022/05/11 07:24:26;;;;;;;13.85;3.35;;;15.10;99.90;;;;;;5068140;28;20077;-81
2022/05/11 07:26:52;;;;;;;11.73;3.80;;;15.10;99.90;;;;;;5033748;28;21049;-81
2022/05/11 07:29:17;;;;;;;13.77;3.22;;;15.20;99.90;;;;;;5035454;28;20501;-82
2022/05/11 07:31:46;;;;;;;11.77;3.17;;;15.20;99.90;;;;;;5067272;28;20045;-80
2022/05/11 07:34:13;;;;;;;10.80;3.63;;;15.20;99.90;;;;;;5029200;28;20067;-82
2022/05/11 07:36:39;;;;;;;11.88;3.42;;;15.40;99.90;;;;;;5050883;28;20065;-82
2022/05/11 07:39:05;;;;;;;12.13;3.47;;;15.50;99.90;;;;;;5052344;28;20056;-81
2022/05/11 07:41:30;;;;;;;14.32;3.28;;;15.50;99.90;;;;;;5028101;28;20403;-81
2022/05/11 07:43:59;;;;;;;12.95;3.40;;;15.50;99.90;;;;;;5035292;28;20127;-78
2022/05/11 07:46:26;;;;;;;12.13;3.30;;;15.50;99.90;;;;;;5050227;28;20136;-80
2022/05/11 07:48:52;;;;;;;12.65;3.47;;;15.50;99.90;;;;;;5034119;28;20045;-81
2022/05/11 07:51:18;;;;;;;14.68;2.78;;;15.60;99.90;;;;;;5052645;28;20494;-81
2022/05/11 07:53:44;;;;;;;13.52;3.25;;;15.80;99.90;;;;;;5045315;28;20049;-80
2022/05/11 08:01:39;;;;;;;14.05;3.08;;;16.30;99.90;;;;;;5059601;28;20049;-78
2022/05/11 08:04:04;;;;;;;15.30;3.38;;;16.30;99.90;;;;;;5037435;28;20059;-78
2022/05/11 08:06:30;;;;;;;15.05;3.13;;;16.30;99.90;;;;;;5035815;28;20041;-77
2022/05/11 08:08:56;;;;;;;13.25;3.28;;;16.50;99.90;;;;;;5034185;28;20073;-78
2022/05/11 08:11:21;;;;;;;15.70;3.05;;;16.50;99.90;;;;;;5066936;28;20045;-79
2022/05/11 08:13:47;;;;;;;11.95;3.20;;;16.60;99.90;;;;;;5053036;28;20110;-78
2022/05/11 08:16:13;;;;;;;13.65;3.22;;;16.50;99.90;;;;;;5051892;28;20076;-78
2022/05/11 08:18:39;;;;;;;11.57;3.00;;;16.50;99.90;;;;;;5035910;28;20048;-79
2022/05/11 08:21:05;;;;;;;13.30;4.22;;;16.60;99.90;;;;;;5036097;28;20051;-80
2022/05/11 08:23:31;;;;;;;13.82;3.20;;;16.80;99.90;;;;;;5052270;28;20044;-81
2022/05/11 08:25:57;;;;;;;16.58;4.65;;;17.00;99.90;;;;;;5036327;28;20140;-80
2022/05/11 08:28:25;;;;;;;13.10;3.38;;;17.10;99.90;;;;;;5069270;28;20045;-80
2022/05/11 08:33:39;;;;;;;17.38;3.17;;;17.30;99.90;;;;;;5053774;28;20117;-81
2022/05/11 08:36:27;;;;;;;15.60;3.67;;;17.60;99.90;;;;;;5051073;28;20053;-79
2022/05/11 08:38:55;;;;;;;15.85;3.50;;;17.70;99.90;;;;;;5056820;28;20080;-82
2022/05/11 08:41:39;;;;;;;13.75;3.03;;;17.70;99.90;;;;;;5069898;28;20079;-82
2022/05/11 08:44:16;;;;;;;15.60;3.97;;;17.80;99.90;;;;;;5046366;28;20059;-80
2022/05/11 08:46:50;;;;;;;11.93;3.17;;;17.70;99.90;;;;;;5086299;28;20056;-82
2022/05/11 08:49:46;;;;;;;11.63;3.38;;;17.80;99.90;;;;;;5081366;28;20052;-81
2022/05/11 08:52:47;;;;;;;16.47;3.77;;;18.40;99.90;;;;;;5096869;28;20061;-81
2022/05/11 08:55:23;;;;;;;12.00;3.35;;;18.10;99.90;;;;;;5052805;28;20020;-83
2022/05/11 08:57:50;;;;;;;13.10;2.85;;;18.30;99.90;;;;;;5061596;28;20045;-82
2022/05/11 09:00:18;;;;;;;13.30;3.10;;;18.50;99.90;;;;;;5051034;28;20057;-80
2022/05/11 09:02:56;;;;;;;13.68;3.80;;;18.50;99.90;;;;;;5008409;28;20060;-81
2022/05/11 09:05:28;;;;;;;12.30;3.38;;;18.70;99.90;;;;;;5030104;28;20049;-81
2022/05/11 09:07:55;;;;;;;14.05;3.03;;;18.80;99.90;;;;;;5081945;28;20053;-81
2022/05/11 09:10:31;;;;;;;10.13;3.30;;;18.90;99.90;;;;;;5046480;28;20061;-82
2022/05/11 09:13:03;;;;;;;11.52;3.42;;;18.90;99.90;;;;;;5048960;28;20106;-81
2022/05/11 09:15:53;;;;;;;14.38;3.13;;;18.90;99.90;;;;;;5031790;28;20401;-81
2022/05/11 09:18:31;;;;;;;17.00;3.83;;;19.00;99.90;;;;;;5034380;28;20044;-79
2022/05/11 09:21:10;;;;;;;10.55;2.97;;;19.00;99.90;;;;;;5046681;28;20057;-81
2022/05/11 09:23:42;;;;;;;16.75;3.35;;;19.00;99.90;;;;;;5031225;28;20440;-81
2022/05/11 09:26:10;;;;;;;11.48;3.33;;;19.00;99.90;;;;;;5046400;28;20127;-82
2022/05/11 09:28:39;;;;;;;12.52;3.20;;;19.10;99.90;;;;;;5064251;28;20048;-81
2022/05/11 09:31:09;;;;;;;16.77;3.45;;;19.10;99.90;;;;;;5021296;28;20101;-79
2022/05/11 09:33:38;;;;;;;10.35;2.75;;;19.20;99.90;;;;;;5080056;28;20064;-81
2022/05/11 09:36:05;;;;;;;11.45;2.85;;;19.10;99.90;;;;;;5040397;28;20453;-76
2022/05/11 09:38:44;;;;;;;11.63;2.95;;;19.10;99.90;;;;;;5030044;28;20068;-80
2022/05/11 09:41:18;;;;;;;11.93;3.38;;;19.20;99.90;;;;;;5023497;28;20052;-78
2022/05/11 09:43:52;;;;;;;11.07;2.85;;;19.40;99.90;;;;;;5031986;28;20095;-80
2022/05/11 09:46:27;;;;;;;13.18;3.40;;;19.40;99.90;;;;;;5080903;28;20052;-81
2022/05/11 09:49:24;;;;;;;13.15;2.70;;;19.50;99.90;;;;;;5047038;28;20045;-82
2022/05/11 09:51:50;;;;;;;9.48;3.05;;;19.60;99.90;;;;;;5047499;28;20394;-82
2022/05/11 09:54:19;;;;;;;10.02;2.38;;;19.60;99.90;;;;;;5062634;28;20515;-81
2022/05/11 09:57:11;;;;;;;10.75;2.50;;;19.60;99.90;;;;;;5030498;28;20114;-84
2022/05/11 09:59:46;;;;;;;9.80;2.83;;;19.40;99.90;;;;;;5077721;28;20064;-81
2022/05/11 10:02:32;;;;;;;11.97;2.77;;;19.40;99.90;;;;;;5047962;28;20053;-83
2022/05/11 10:05:04;;;;;;;10.23;2.38;;;19.50;99.90;;;;;;5081480;28;20091;-81
2022/05/11 10:07:36;;;;;;;9.70;2.67;;;19.50;99.90;;;;;;5046990;28;20041;-80
2022/05/11 10:10:12;;;;;;;13.98;3.13;;;19.60;99.90;;;;;;5064118;28;20871;-81
2022/05/11 10:12:41;;;;;;;9.73;2.78;;;19.70;99.90;;;;;;5085189;28;20044;-80
2022/05/11 10:21:53;;;;;;;9.98;3.10;;;20.00;99.90;;;;;;5038317;28;20052;-81
2022/05/11 10:24:40;;;;;;;10.10;2.80;;;20.00;99.90;;;;;;5061257;28;20060;-81
2022/05/11 10:27:25;;;;;;;12.68;3.35;;;20.30;99.90;;;;;;5034888;28;20048;-80
2022/05/11 10:30:03;;;;;;;14.52;3.53;;;20.40;99.90;;;;;;5083911;28;20103;-82
2022/05/11 10:32:44;;;;;;;11.98;3.00;;;20.40;99.90;;;;;;5064668;28;20529;-82
2022/05/11 10:35:31;;;;;;;9.68;3.05;;;20.30;99.90;;;;;;5026037;28;20045;-80
2022/05/11 10:38:25;;;;;;;10.50;2.90;;;20.20;99.90;;;;;;5042783;28;20067;-76
2022/05/11 10:40:59;;;;;;;9.93;2.70;;;20.30;99.90;;;;;;5079909;28;20049;-82
2022/05/11 10:43:56;;;;;;;8.13;2.38;;;20.40;99.90;;;;;;5028850;28;20045;-81
2022/05/11 10:46:22;;;;;;;9.27;2.80;;;20.40;99.90;;;;;;5064506;28;20041;-83
2022/05/11 10:49:16;;;;;;;11.38;2.45;;;20.50;99.90;;;;;;5030983;28;20097;-82
2022/05/11 10:52:06;;;;;;;13.05;3.08;;;20.70;99.90;;;;;;5048842;28;20176;-78
2022/05/11 10:55:10;;;;;;;10.90;3.20;;;20.80;99.90;;;;;;5034918;28;20072;-79
2022/05/11 10:57:49;;;;;;;14.90;3.35;;;21.00;99.90;;;;;;5086713;28;20132;-80
2022/05/11 11:00:19;;;;;;;13.82;3.05;;;21.10;99.90;;;;;;5089235;28;20060;-80
2022/05/11 11:03:22;;;;;;;11.43;3.10;;;21.40;99.90;;;;;;5029600;28;20045;-81
2022/05/11 11:09:21;;;;;;;14.65;3.38;;;21.40;99.90;;;;;;5045737;28;20136;-81
2022/05/11 11:11:56;;;;;;;15.57;3.88;;;20.80;99.90;;;;;;5045557;28;20049;-82
2022/05/11 11:14:39;;;;;;;18.30;4.40;;;20.30;99.90;;;;;;5029571;28;20044;-82
2022/05/11 11:17:08;;;;;;;13.40;3.60;;;20.00;99.90;;;;;;5029937;28;20565;-78
2022/05/11 11:19:36;;;;;;;13.77;3.03;;;19.80;99.90;;;;;;5024650;28;20053;-82
2022/05/11 11:22:04;;;;;;;14.13;3.25;;;19.70;99.90;;;;;;5045926;28;20056;-82
2022/05/11 11:24:30;;;;;;;14.98;4.28;;;19.70;99.90;;;;;;5041602;28;20041;-82
2022/05/11 11:27:05;;;;;;;12.52;3.47;;;19.50;99.90;;;;;;5029789;28;20064;-82
2022/05/11 11:29:36;;;;;;;19.63;3.97;;;19.80;99.90;;;;;;5028928;28;20052;-80
2022/05/11 11:32:08;;;;;;;12.55;3.10;;;19.40;99.90;;;;;;5029589;28;20041;-77
2022/05/11 11:34:40;;;;;;;16.35;4.03;;;19.70;99.90;;;;;;5043585;28;20048;-80
2022/05/11 11:37:32;;;;;;;14.43;3.95;;;19.90;99.90;;;;;;5049609;28;20053;-81
2022/05/11 11:39:59;;;;;;;13.75;3.30;;;20.30;99.90;;;;;;5027289;28;20526;-81
2022/05/11 11:42:28;;;;;;;11.02;3.35;;;20.40;99.90;;;;;;5025670;28;20075;-81
2022/05/11 11:44:55;;;;;;;16.10;3.53;;;20.50;99.90;;;;;;5043604;28;20165;-80
2022/05/11 11:47:27;;;;;;;12.70;3.92;;;20.50;99.90;;;;;;5025603;28;20040;-81
2022/05/11 11:49:55;;;;;;;12.52;3.30;;;20.50;99.90;;;;;;5082198;28;20057;-81
2022/05/11 11:52:41;;;;;;;14.02;3.15;;;20.50;99.90;;;;;;5066817;28;20053;-79
2022/05/11 11:55:27;;;;;;;12.82;3.03;;;20.40;99.90;;;;;;5031863;28;20076;-78
2022/05/11 11:58:24;;;;;;;12.07;3.35;;;20.40;99.90;;;;;;5033933;28;20104;-81
2022/05/11 12:00:50;;;;;;;14.75;3.72;;;20.40;99.90;;;;;;5049471;28;20291;-80
2022/05/11 12:03:23;;;;;;;15.68;3.28;;;20.20;99.90;;;;;;5050642;28;20486;-82
2022/05/11 12:05:54;;;;;;;13.07;3.83;;;19.90;99.90;;;;;;5031681;28;20051;-80
2022/05/11 12:16:57;;;;;;;13.68;3.95;;;19.80;99.90;;;;;;5083098;28;20048;-81
2022/05/11 12:19:32;;;;;;;14.43;3.28;;;19.80;99.90;;;;;;5065178;28;20128;-82
2022/05/11 12:22:12;;;;;;;13.85;4.35;;;19.70;99.90;;;;;;5048814;28;20106;-83
2022/05/11 12:24:48;;;;;;;11.65;3.13;;;19.50;99.90;;;;;;5042519;28;20490;-82
2022/05/11 12:27:33;;;;;;;13.02;3.60;;;19.30;99.90;;;;;;5032756;28;20060;-81
2022/05/11 12:30:04;;;;;;;11.10;3.63;;;19.20;99.90;;;;;;5025825;28;20080;-81
2022/05/11 12:32:33;;;;;;;13.65;3.90;;;19.00;99.90;;;;;;5048618;28;20095;-83
2022/05/11 12:35:10;;;;;;;14.13;3.40;;;19.00;99.90;;;;;;5033758;28;20086;-82
2022/05/11 12:37:37;;;;;;;13.15;3.47;;;19.00;99.90;;;;;;5048124;28;20045;-83
2022/05/11 12:40:17;;;;;;;12.35;4.15;;;18.90;99.90;;;;;;5030470;28;20057;-77
2022/05/11 12:42:46;;;;;;;10.38;3.38;;;19.00;99.90;;;;;;5032726;28;20059;-82
2022/05/11 12:45:25;;;;;;;16.05;3.80;;;19.00;99.90;;;;;;5048691;28;20045;-80
2022/05/11 12:48:03;;;;;;;14.85;3.80;;;19.20;99.90;;;;;;5030682;28;20048;-81
2022/05/11 12:50:33;;;;;;;13.95;3.72;;;19.20;99.90;;;;;;5031516;28;20155;-81
2022/05/11 12:53:04;;;;;;;17.60;3.80;;;19.20;99.90;;;;;;5027564;28;20104;-81
2022/05/11 12:55:33;;;;;;;13.57;3.70;;;19.40;99.90;;;;;;5025963;28;20051;-81
2022/05/11 12:58:00;;;;;;;15.75;3.60;;;19.70;99.90;;;;;;5026053;28;20063;-80
2022/05/11 13:00:28;;;;;;;9.63;3.38;;;19.60;99.90;;;;;;5045013;28;20037;-82
2022/05/11 13:02:55;;;;;;;14.63;4.20;;;19.70;99.90;;;;;;5066447;28;20209;-81
2022/05/11 13:05:21;;;;;;;14.27;3.53;;;19.90;99.90;;;;;;5046791;28;20483;-79
2022/05/11 13:07:59;;;;;;;14.00;3.15;;;20.00;99.90;;;;;;5050447;28;20048;-82
2022/05/11 13:10:30;;;;;;;10.75;2.80;;;19.80;99.90;;;;;;5022377;28;20045;-81
2022/05/11 13:12:58;;;;;;;10.95;3.13;;;19.80;99.90;;;;;;5062763;28;20044;-80
2022/05/11 13:15:36;;;;;;;10.80;3.35;;;19.80;99.90;;;;;;5015817;28;20044;-81
2022/05/11 13:18:04;;;;;;;10.90;2.83;;;19.80;99.90;;;;;;5048303;28;20045;-76
2022/05/11 13:20:38;;;;;;;9.05;3.00;;;20.10;99.90;;;;;;5079541;28;20106;-79
2022/05/11 13:23:18;;;;;;;10.77;3.03;;;20.30;99.90;;;;;;5081245;28;20053;-77
2022/05/11 13:25:48;;;;;;;12.55;3.17;;;20.10;99.90;;;;;;5048122;28;20049;-79
2022/05/11 13:28:30;;;;;;;7.97;2.38;;;20.20;99.90;;;;;;5048584;28;20060;-78
2022/05/11 13:31:02;;;;;;;12.57;3.22;;;19.90;99.90;;;;;;5060521;28;20148;-78
2022/05/11 13:33:33;;;;;;;11.00;2.80;;;19.80;99.90;;;;;;5081115;28;20044;-77
2022/05/11 13:36:21;;;;;;;7.82;2.47;;;19.90;99.90;;;;;;5064791;28;20049;-79